Time;durP1;ratioP1;P1;durP2;ratioP2;P2;SDS_P1;SDS_P2;PMS_P1;PMS_P2;Temp;Humidity;BMP_temperature;BMP_pressure;BME280_temperature;BME280_humidity;BME280_pressure;Samples;Min_cycle;Max_cycle;Signal;HPM_P1;HPM_P2
2021/12/12 00:01:29;;;;;;;60.83;32.07;;;;;;;-5.73;82.82;101408.41;5004408;28;20409;-77
2021/12/12 00:04:04;;;;;;;53.00;28.60;;;;;;;-5.76;82.51;101411.66;5006743;28;20076;-77
2021/12/12 00:06:33;;;;;;;57.10;30.37;;;;;;;-5.72;83.00;101410.19;5003476;28;20035;-77
2021/12/12 00:09:04;;;;;;;54.67;28.23;;;;;;;-5.75;82.72;101420.25;5006189;28;20109;-77
2021/12/12 00:11:31;;;;;;;47.40;26.43;;;;;;;-5.73;83.27;101417.00;4999388;28;20530;-77
2021/12/12 00:14:06;;;;;;;44.87;24.80;;;;;;;-5.68;82.80;101421.59;4991362;28;20124;-77
2021/12/12 00:16:31;;;;;;;51.27;26.40;;;;;;;-5.68;82.83;101429.31;4987273;28;20037;-77
2021/12/12 00:18:57;;;;;;;45.73;25.37;;;;;;;-5.66;82.30;101430.28;5004143;28;20417;-77
2021/12/12 00:21:26;;;;;;;41.37;24.37;;;;;;;-5.64;82.08;101429.63;5005231;28;20211;-76
2021/12/12 00:23:51;;;;;;;41.63;23.27;;;;;;;-5.67;82.57;101424.25;5003922;28;20400;-77
2021/12/12 00:26:17;;;;;;;44.57;23.63;;;;;;;-5.65;82.27;101427.84;5005679;28;20036;-77
2021/12/12 00:28:42;;;;;;;43.70;25.20;;;;;;;-5.69;82.02;101427.50;4982103;28;20038;-76
2021/12/12 00:31:11;;;;;;;51.97;27.77;;;;;;;-5.74;81.57;101425.50;5001651;28;20046;-77
2021/12/12 00:33:41;;;;;;;43.97;25.27;;;;;;;-5.76;82.31;101424.50;4985252;28;20115;-77
2021/12/12 00:36:07;;;;;;;44.07;25.53;;;;;;;-5.77;82.12;101426.94;5005236;28;20038;-77
2021/12/12 00:38:35;;;;;;;41.07;23.27;;;;;;;-5.80;82.04;101422.47;4988425;28;20101;-77
2021/12/12 00:41:08;;;;;;;44.07;24.20;;;;;;;-5.83;82.47;101423.94;5002287;28;20042;-77
2021/12/12 00:43:40;;;;;;;39.87;24.00;;;;;;;-5.84;82.29;101420.47;5002459;28;20042;-77
2021/12/12 00:46:08;;;;;;;41.65;23.48;;;;;;;-5.82;82.45;101423.13;5004592;28;20061;-77
2021/12/12 00:48:34;;;;;;;44.80;25.23;;;;;;;-5.85;82.60;101413.53;4985903;28;20389;-77
2021/12/12 00:51:06;;;;;;;43.73;24.33;;;;;;;-5.88;81.68;101418.44;4990485;28;20117;-77
2021/12/12 00:53:33;;;;;;;50.27;25.27;;;;;;;-5.77;82.53;101412.41;5004910;28;20061;-78
2021/12/12 00:55:58;;;;;;;38.73;21.97;;;;;;;-5.68;81.84;101416.47;5002740;28;20629;-77
2021/12/12 00:58:24;;;;;;;41.37;23.00;;;;;;;-5.68;81.93;101416.47;5005046;28;20041;-77
2021/12/12 01:00:55;;;;;;;42.80;24.07;;;;;;;-5.64;81.64;101424.47;4981374;28;20058;-77
2021/12/12 01:03:30;;;;;;;43.23;24.53;;;;;;;-5.65;81.66;101422.72;5002382;28;20042;-76
2021/12/12 01:06:00;;;;;;;41.53;22.83;;;;;;;-5.70;81.15;101438.59;4986178;28;20036;-77
2021/12/12 01:08:27;;;;;;;45.17;24.77;;;;;;;-5.73;81.06;101441.84;5003708;28;20096;-77
2021/12/12 01:11:05;;;;;;;38.37;22.10;;;;;;;-5.70;82.20;101442.06;5003787;28;20634;-77
2021/12/12 01:13:31;;;;;;;44.33;23.73;;;;;;;-5.64;82.26;101432.19;5004361;28;20081;-77
2021/12/12 01:16:04;;;;;;;39.17;23.50;;;;;;;-5.56;81.54;101433.66;5002110;28;20053;-77
2021/12/12 01:18:36;;;;;;;43.67;25.77;;;;;;;-5.56;81.23;101440.47;5004960;28;20034;-77
2021/12/12 01:21:14;;;;;;;51.78;27.90;;;;;;;-5.53;82.53;101440.69;5002468;28;20092;-77
2021/12/12 01:23:59;;;;;;;55.70;28.60;;;;;;;-5.45;82.07;101459.25;5007368;28;20066;-77
2021/12/12 01:26:27;;;;;;;45.73;24.67;;;;;;;-5.47;81.59;101459.16;5005241;28;20038;-77
2021/12/12 01:28:54;;;;;;;66.67;28.77;;;;;;;-5.40;82.17;101471.66;5005436;28;20037;-77
2021/12/12 01:31:25;;;;;;;57.83;28.93;;;;;;;-5.29;83.01;101478.50;5002317;28;20036;-77
2021/12/12 01:34:13;;;;;;;52.47;26.47;;;;;;;-5.26;82.56;101474.38;5001659;28;20034;-77
2021/12/12 01:36:49;;;;;;;50.67;27.13;;;;;;;-5.25;83.68;101465.88;5003640;28;20126;-77
2021/12/12 01:39:19;;;;;;;49.10;24.97;;;;;;;-5.12;83.77;101473.69;5002334;28;20481;-77
2021/12/12 01:41:52;;;;;;;47.83;26.33;;;;;;;-5.03;82.97;101469.19;5000842;28;20049;-77
2021/12/12 01:44:21;;;;;;;;;;;;;;;-5.00;84.14;101464.25;5002317;28;20030;-76
2021/12/12 01:46:56;;;;;;;49.77;24.90;;;;;;;-4.98;84.26;101470.41;4987931;28;19952;-77
2021/12/12 01:49:25;;;;;;;48.80;24.90;;;;;;;-5.03;83.75;101464.06;5003644;28;20038;-77
2021/12/12 01:51:51;;;;;;;46.00;24.07;;;;;;;-5.11;82.25;101460.00;5004140;28;20480;-77
2021/12/12 01:54:27;;;;;;;51.53;27.00;;;;;;;-5.16;82.54;101470.00;5002359;28;20046;-77
2021/12/12 01:56:59;;;;;;;42.63;22.80;;;;;;;-5.15;82.81;101469.22;5003342;28;20459;-77
2021/12/12 01:59:28;;;;;;;46.45;22.67;;;;;;;-5.11;84.31;101466.09;4987007;28;20528;-77
2021/12/12 02:02:03;;;;;;;39.33;21.50;;;;;;;-4.92;85.01;101457.97;4984146;28;20037;-77
2021/12/12 02:04:34;;;;;;;39.43;20.50;;;;;;;-4.79;84.81;101464.88;5000112;28;20045;-77
2021/12/12 02:07:01;;;;;;;37.83;21.42;;;;;;;-4.71;84.90;101462.84;4988933;28;20074;-76
2021/12/12 02:09:27;;;;;;;42.67;24.23;;;;;;;-4.62;86.12;101456.63;4988697;28;20093;-77
2021/12/12 02:11:56;;;;;;;34.70;19.43;;;;;;;-4.56;86.02;101458.75;5004869;28;20038;-77
2021/12/12 02:14:22;;;;;;;41.07;20.67;;;;;;;-4.52;85.39;101454.72;4984086;28;20046;-77
2021/12/12 02:16:57;;;;;;;35.63;19.83;;;;;;;-4.48;85.29;101448.97;5004692;28;20041;-77
2021/12/12 02:19:31;;;;;;;36.33;20.40;;;;;;;-4.46;85.40;101448.28;5000298;28;20053;-76
2021/12/12 02:22:09;;;;;;;35.43;19.13;;;;;;;-4.43;85.18;101445.03;5004336;28;20040;-77
2021/12/12 02:35:42;;;;;;;32.63;18.03;;;;;;;-4.55;84.76;101445.09;4984438;28;20042;-77
2021/12/12 02:38:12;;;;;;;33.43;18.23;;;;;;;-4.42;85.92;101451.97;5001578;28;20117;-77
2021/12/12 02:40:43;;;;;;;34.67;18.50;;;;;;;-4.23;87.38;101456.69;5004355;28;20481;-77
2021/12/12 02:43:12;;;;;;;35.43;17.87;;;;;;;-4.17;86.98;101454.53;4984816;28;20042;-77
2021/12/12 02:45:38;;;;;;;33.10;18.10;;;;;;;-4.05;88.18;101445.06;5004066;28;20040;-77
2021/12/12 02:48:06;;;;;;;33.30;18.50;;;;;;;-3.92;87.68;101449.34;4981307;28;20035;-77
2021/12/12 02:50:41;;;;;;;28.10;16.33;;;;;;;-3.84;88.36;101449.84;4984727;28;20042;-77
2021/12/12 02:53:13;;;;;;;29.47;16.60;;;;;;;-3.67;89.22;101448.38;5003768;28;20029;-77
2021/12/12 02:55:46;;;;;;;31.83;18.25;;;;;;;-3.54;89.44;101461.28;4982299;28;20089;-77
2021/12/12 02:58:16;;;;;;;29.10;15.47;;;;;;;-3.40;89.79;101454.47;4986652;28;20053;-77
2021/12/12 03:00:46;;;;;;;31.93;17.17;;;;;;;-3.28;90.03;101455.22;5002729;28;20046;-77
2021/12/12 03:03:12;;;;;;;29.67;15.50;;;;;;;-3.20;89.82;101460.88;4999849;28;20424;-77
2021/12/12 03:05:43;;;;;;;31.47;17.10;;;;;;;-3.12;89.98;101463.19;5004268;28;20042;-77
2021/12/12 03:08:10;;;;;;;30.40;17.13;;;;;;;-3.16;89.34;101466.34;5002130;28;20437;-77
2021/12/12 03:10:40;;;;;;;26.50;15.10;;;;;;;-3.17;88.80;101467.16;5004511;28;20034;-77
2021/12/12 03:13:06;;;;;;;27.47;14.80;;;;;;;-3.11;90.09;101470.13;5003457;28;20042;-77
2021/12/12 03:15:38;;;;;;;27.70;15.70;;;;;;;-3.06;89.50;101478.16;5007990;28;20045;-77
2021/12/12 03:18:06;;;;;;;25.63;14.77;;;;;;;-2.96;89.37;101472.78;5005459;28;20042;-77
2021/12/12 03:20:40;;;;;;;24.83;14.10;;;;;;;-2.96;89.89;101477.03;5003662;28;20033;-77
2021/12/12 03:23:15;;;;;;;26.07;14.50;;;;;;;-2.95;89.43;101472.00;4988331;28;20411;-77
2021/12/12 03:25:42;;;;;;;25.03;14.43;;;;;;;-2.96;89.70;101474.47;5012832;28;20500;-78
2021/12/12 03:28:11;;;;;;;31.17;16.33;;;;;;;-2.85;90.57;101481.22;5006511;28;20034;-76
2021/12/12 03:30:38;;;;;;;21.70;13.00;;;;;;;-2.82;89.34;101485.69;5007892;28;20045;-77
2021/12/12 03:33:04;;;;;;;25.43;15.13;;;;;;;-2.85;89.15;101486.38;5005657;28;20038;-78
2021/12/12 03:35:29;;;;;;;30.37;17.10;;;;;;;-2.82;90.11;101486.56;5007654;28;20042;-77
2021/12/12 03:37:55;;;;;;;29.87;16.57;;;;;;;-2.79;90.54;101486.75;5004961;28;20041;-78
2021/12/12 03:40:28;;;;;;;28.73;15.70;;;;;;;-2.70;90.10;101483.84;5008610;28;20034;-77
2021/12/12 03:42:57;;;;;;;28.97;16.60;;;;;;;-2.63;91.21;101483.44;5006755;28;20054;-77
2021/12/12 03:45:22;;;;;;;35.97;18.20;;;;;;;-2.54;91.38;101480.53;4990384;28;20074;-77
2021/12/12 03:48:00;;;;;;;26.73;15.20;;;;;;;-2.54;89.78;101493.44;5008676;28;20503;-77
2021/12/12 03:50:32;;;;;;;28.43;16.27;;;;;;;-2.58;90.19;101483.72;5006472;28;20030;-77
2021/12/12 03:52:58;;;;;;;23.83;14.43;;;;;;;-2.55;90.15;101477.06;4988994;28;20052;-77
2021/12/12 03:55:25;;;;;;;28.33;16.50;;;;;;;-2.55;90.39;101479.63;5005767;28;20034;-77
2021/12/12 03:57:52;;;;;;;30.23;16.30;;;;;;;-2.47;90.02;101493.03;5007121;28;20045;-77
2021/12/12 04:00:25;;;;;;;24.93;15.10;;;;;;;-2.50;89.86;101493.75;5006235;28;20039;-77
2021/12/12 04:02:50;;;;;;;31.57;17.23;;;;;;;-2.53;89.58;101503.00;4988764;28;20073;-78
2021/12/12 04:05:16;;;;;;;24.90;14.53;;;;;;;-2.52;89.70;101504.78;5001337;28;20042;-77
2021/12/12 04:07:42;;;;;;;27.60;16.00;;;;;;;-2.48;89.32;101496.44;5005486;28;20509;-77
2021/12/12 04:10:10;;;;;;;30.87;17.57;;;;;;;-2.42;89.68;101492.50;5006739;28;20040;-77
2021/12/12 04:12:36;;;;;;;26.23;15.00;;;;;;;-2.37;90.11;101500.56;5004703;28;20034;-77
2021/12/12 04:15:03;;;;;;;27.13;15.63;;;;;;;-2.33;89.10;101512.88;5006678;28;20216;-77
2021/12/12 04:17:30;;;;;;;31.70;15.63;;;;;;;-2.31;89.36;101516.44;5010194;28;20026;-77
2021/12/12 04:20:00;;;;;;;31.20;17.90;;;;;;;-2.28;88.88;101516.66;4993497;28;20128;-77
2021/12/12 04:22:26;;;;;;;28.70;16.53;;;;;;;-2.17;89.86;101516.38;5000632;28;20038;-77
2021/12/12 04:24:54;;;;;;;29.63;17.00;;;;;;;-1.98;89.38;101512.44;4989588;28;20030;-77
2021/12/12 04:27:21;;;;;;;32.63;18.33;;;;;;;-1.78;90.26;101502.38;4996345;28;20108;-77
2021/12/12 04:29:49;;;;;;;29.53;16.77;;;;;;;-1.66;90.03;101512.56;5010038;28;20038;-76
2021/12/12 04:32:18;;;;;;;33.57;19.13;;;;;;;-1.50;90.10;101510.06;5004144;28;20105;-77
2021/12/12 04:34:47;;;;;;;34.00;18.77;;;;;;;-1.36;90.25;101511.75;5004308;28;20038;-77
2021/12/12 04:37:15;;;;;;;30.40;17.73;;;;;;;-1.21;89.96;101521.19;5007563;28;20046;-78
2021/12/12 04:39:47;;;;;;;34.43;19.73;;;;;;;-1.08;89.62;101515.91;5004184;28;20526;-77
2021/12/12 04:42:15;;;;;;;;;;;;;;;-0.94;90.41;101515.00;5007370;28;20113;-77
2021/12/12 04:44:45;;;;;;;29.23;17.80;;;;;;;-0.74;90.05;101516.09;5004950;28;19914;-77
2021/12/12 04:50:09;;;;;;;33.80;19.53;;;;;;;-0.42;89.15;101513.47;5007448;28;20037;-77
2021/12/12 04:52:56;;;;;;;33.90;20.43;;;;;;;-0.29;89.03;101516.81;5005285;28;20031;-77
2021/12/12 04:55:29;;;;;;;32.70;18.90;;;;;;;-0.20;89.37;101511.22;5004712;28;20079;-77
2021/12/12 04:58:33;;;;;;;29.83;18.13;;;;;;;-0.11;88.74;101505.63;5005001;28;20050;-77
2021/12/12 05:01:04;;;;;;;29.50;18.83;;;;;;;-0.07;88.68;101508.47;4964394;28;20142;-77
2021/12/12 05:03:51;;;;;;;31.57;18.70;;;;;;;-0.10;88.37;101505.72;4989586;28;20033;-77
2021/12/12 05:06:26;;;;;;;29.40;18.43;;;;;;;-0.20;88.89;101495.66;4987014;28;20034;-77
2021/12/12 05:08:54;;;;;;;30.43;18.90;;;;;;;-0.26;89.48;101505.72;5005202;28;20038;-76
2021/12/12 05:11:49;;;;;;;29.33;18.50;;;;;;;-0.31;88.43;101512.38;5009694;28;20038;-77
2021/12/12 05:14:23;;;;;;;30.83;19.00;;;;;;;-0.38;88.83;101511.13;5003642;28;20034;-77
2021/12/12 05:16:53;;;;;;;32.90;19.70;;;;;;;-0.43;89.20;101506.50;4989761;28;20034;-78
2021/12/12 05:19:26;;;;;;;30.53;18.77;;;;;;;-0.49;90.11;101513.16;4987934;28;20039;-77
2021/12/12 05:21:53;;;;;;;;;;;;;;;-0.56;89.71;101518.78;5006226;28;20045;-77
2021/12/12 05:24:20;;;;;;;33.27;19.13;;;;;;;-0.58;89.85;101517.81;5005233;28;19914;-76
2021/12/12 05:26:58;;;;;;;34.07;19.33;;;;;;;-0.57;90.44;101513.53;5005723;28;20381;-77
2021/12/12 05:29:29;;;;;;;32.30;18.33;;;;;;;-0.59;91.15;101520.34;5006655;28;20030;-77
2021/12/12 05:31:57;;;;;;;35.00;20.73;;;;;;;-0.61;90.52;101517.66;5004612;28;20480;-77
2021/12/12 05:34:27;;;;;;;33.23;19.77;;;;;;;-0.59;91.06;101530.72;4984789;28;20050;-76
2021/12/12 05:36:53;;;;;;;33.13;19.73;;;;;;;-0.61;90.99;101528.03;4985596;28;20484;-77
2021/12/12 05:39:20;;;;;;;33.27;20.87;;;;;;;-0.61;91.14;101527.13;5006427;28;20068;-77
2021/12/12 05:41:47;;;;;;;36.43;19.43;;;;;;;-0.62;90.67;101534.03;5004537;28;20381;-77
2021/12/12 05:44:14;;;;;;;35.40;19.47;;;;;;;-0.66;90.50;101529.47;5008842;28;20096;-77
2021/12/12 05:46:39;;;;;;;28.13;17.90;;;;;;;-0.64;91.08;101539.94;5010055;28;20030;-77
2021/12/12 05:49:06;;;;;;;35.70;20.47;;;;;;;-0.65;90.94;101531.28;5004757;28;20044;-77
2021/12/12 05:51:33;;;;;;;34.17;19.63;;;;;;;-0.66;90.44;101526.88;5004959;28;20042;-77
2021/12/12 05:53:59;;;;;;;31.00;19.07;;;;;;;-0.71;90.48;101525.72;5005416;28;20048;-77
2021/12/12 05:56:28;;;;;;;34.87;19.80;;;;;;;-0.71;90.63;101520.53;4983877;28;20026;-75
2021/12/12 05:58:55;;;;;;;33.23;20.50;;;;;;;-0.75;90.28;101522.09;5008720;28;20034;-77
2021/12/12 06:01:21;;;;;;;38.43;21.53;;;;;;;-0.82;89.94;101517.38;5007195;28;20057;-77
2021/12/12 06:03:47;;;;;;;37.83;23.50;;;;;;;-0.94;90.40;101520.19;5005826;28;20408;-78
2021/12/12 06:06:19;;;;;;;45.20;28.13;;;;;;;-0.93;90.03;101524.53;4986155;28;20034;-76
2021/12/12 06:08:46;;;;;;;38.72;23.58;;;;;;;-0.94;89.99;101522.78;4972499;28;20056;-78
2021/12/12 06:11:14;;;;;;;43.37;26.03;;;;;;;-0.90;90.36;101523.81;5004859;28;20042;-77
2021/12/12 06:13:41;;;;;;;37.33;23.90;;;;;;;-0.85;90.87;101535.34;5006551;28;20026;-76
2021/12/12 06:16:08;;;;;;;40.20;24.67;;;;;;;-0.79;90.19;101532.19;5004324;28;20039;-78
2021/12/12 06:18:35;;;;;;;35.20;22.23;;;;;;;-0.78;90.68;101534.00;4989727;28;20049;-76
2021/12/12 06:21:02;;;;;;;39.70;22.57;;;;;;;-0.75;90.29;101534.16;5004764;28;20121;-78
2021/12/12 06:23:28;;;;;;;39.10;23.50;;;;;;;-0.75;89.77;101537.66;5006997;28;20460;-77
2021/12/12 06:25:54;;;;;;;38.83;23.77;;;;;;;-0.74;90.15;101546.31;4999317;28;20026;-77
2021/12/12 06:28:27;;;;;;;39.53;23.40;;;;;;;-0.70;90.07;101545.69;5004433;28;20041;-76
2021/12/12 06:30:52;;;;;;;36.63;22.43;;;;;;;-0.75;89.83;101544.53;4975801;28;20424;-77
2021/12/12 06:33:17;;;;;;;41.60;24.43;;;;;;;-0.78;89.82;101552.16;4990201;28;20041;-77
2021/12/12 06:35:43;;;;;;;40.67;24.33;;;;;;;-0.84;89.83;101546.59;4999071;28;20034;-77
2021/12/12 06:38:11;;;;;;;39.63;22.23;;;;;;;-0.88;89.21;101551.63;5004109;28;20058;-77
2021/12/12 06:40:37;;;;;;;37.00;21.40;;;;;;;-0.92;89.12;101556.53;5007263;28;20092;-77
2021/12/12 06:43:05;;;;;;;36.77;21.87;;;;;;;-0.93;89.16;101557.34;5004987;28;20133;-77
2021/12/12 06:45:32;;;;;;;35.00;19.70;;;;;;;-0.94;90.17;101558.16;5006081;28;20030;-77
2021/12/12 06:47:58;;;;;;;35.30;19.97;;;;;;;-0.97;89.46;101558.88;4987947;28;20257;-77
2021/12/12 06:50:26;;;;;;;28.23;18.27;;;;;;;-0.97;89.68;101563.16;4991643;28;20029;-77
2021/12/12 06:52:54;;;;;;;31.17;18.73;;;;;;;-0.99;89.50;101565.66;5010049;28;20041;-78
2021/12/12 06:55:21;;;;;;;30.57;18.03;;;;;;;-0.97;89.46;101574.44;4990349;28;20038;-78
2021/12/12 06:57:47;;;;;;;31.10;18.87;;;;;;;-0.97;89.36;101558.88;4988907;28;20070;-78
2021/12/12 07:00:17;;;;;;;28.73;16.23;;;;;;;-0.95;89.50;101556.34;5009798;28;20042;-77
2021/12/12 07:02:44;;;;;;;27.53;17.47;;;;;;;-0.96;89.46;101554.59;4975487;28;20046;-78
2021/12/12 07:05:13;;;;;;;25.93;16.47;;;;;;;-0.96;89.00;101573.63;5009521;28;20547;-77
2021/12/12 07:07:38;;;;;;;30.50;17.80;;;;;;;-0.95;89.22;101569.31;5009097;28;20091;-77
2021/12/12 07:10:07;;;;;;;30.77;18.07;;;;;;;-0.89;89.88;101570.56;5004881;28;20038;-77
2021/12/12 07:12:33;;;;;;;27.73;17.20;;;;;;;-0.85;89.14;101561.25;4993276;28;20053;-78
2021/12/12 07:14:59;;;;;;;31.17;17.80;;;;;;;-0.78;89.49;101572.88;4991768;28;20069;-77
2021/12/12 07:17:24;;;;;;;25.73;16.90;;;;;;;-0.69;89.83;101568.19;4987969;28;20041;-77
2021/12/12 07:19:51;;;;;;;31.37;19.63;;;;;;;-0.59;89.60;101577.38;5007886;28;20092;-78
2021/12/12 07:22:16;;;;;;;29.57;17.40;;;;;;;-0.52;89.63;101580.41;5009550;28;20443;-76
2021/12/12 07:24:43;;;;;;;27.00;16.13;;;;;;;-0.42;89.31;101583.50;5006936;28;20099;-77
2021/12/12 07:27:10;;;;;;;26.73;16.60;;;;;;;-0.34;89.04;101579.63;5010831;28;20396;-77
2021/12/12 07:29:35;;;;;;;27.60;16.53;;;;;;;-0.31;88.70;101580.69;5006561;28;20038;-78
2021/12/12 07:32:03;;;;;;;25.67;16.30;;;;;;;-0.27;88.25;101574.84;5009992;28;20045;-77
2021/12/12 07:34:29;;;;;;;30.60;17.33;;;;;;;-0.23;88.41;101571.63;5007783;28;20034;-77
2021/12/12 07:36:59;;;;;;;26.90;15.57;;;;;;;-0.19;88.32;101558.81;5013922;28;20068;-78
2021/12/12 07:39:25;;;;;;;28.63;16.77;;;;;;;-0.14;88.25;101567.72;5010856;28;20118;-77
2021/12/12 07:41:52;;;;;;;27.17;16.40;;;;;;;-0.13;87.76;101560.03;5010636;28;20049;-77
2021/12/12 07:44:21;;;;;;;29.97;18.33;;;;;;;-0.15;87.36;101566.84;4989955;28;20038;-77
2021/12/12 07:46:47;;;;;;;27.73;16.40;;;;;;;-0.10;87.64;101570.59;5005536;28;20026;-77
2021/12/12 07:49:17;;;;;;;26.70;16.93;;;;;;;-0.03;88.26;101561.41;5009738;28;20049;-77
2021/12/12 07:51:43;;;;;;;27.87;17.43;;;;;;;0.04;87.60;101567.81;4990420;28;20053;-77
2021/12/12 07:54:10;;;;;;;27.50;16.73;;;;;;;0.12;87.37;101572.59;5011081;28;20041;-78
2021/12/12 07:56:39;;;;;;;26.23;17.03;;;;;;;0.16;87.32;101579.75;4988148;28;20042;-77
2021/12/12 07:59:07;;;;;;;27.27;16.70;;;;;;;0.22;87.03;101582.66;5007295;28;20503;-77
2021/12/12 08:01:33;;;;;;;24.60;15.20;;;;;;;0.26;86.94;101585.41;5007909;28;20040;-77
2021/12/12 08:03:59;;;;;;;27.17;16.20;;;;;;;0.28;85.89;101574.28;5009043;28;20046;-77
2021/12/12 08:06:25;;;;;;;29.47;18.07;;;;;;;0.32;86.32;101576.25;5008182;28;20091;-77
2021/12/12 08:08:52;;;;;;;26.30;16.57;;;;;;;0.29;86.28;101569.97;5008960;28;20169;-77
2021/12/12 08:11:24;;;;;;;27.23;17.57;;;;;;;0.28;85.93;101579.47;5009326;28;20165;-77
2021/12/12 08:13:50;;;;;;;27.10;17.35;;;;;;;0.24;85.73;101577.56;5013023;28;20041;-77
2021/12/12 08:16:17;;;;;;;28.30;17.43;;;;;;;0.16;85.67;101578.88;4990823;28;20041;-77
2021/12/12 08:18:44;;;;;;;28.87;16.87;;;;;;;0.19;85.11;101585.09;4987367;28;20093;-77
2021/12/12 08:21:10;;;;;;;25.33;16.60;;;;;;;0.23;85.05;101578.34;5008346;28;20042;-77
2021/12/12 08:23:37;;;;;;;30.17;18.10;;;;;;;0.31;85.39;101581.34;5009856;28;20030;-77
2021/12/12 08:26:05;;;;;;;29.47;18.83;;;;;;;0.32;84.72;101590.94;4986782;28;20516;-77
2021/12/12 08:28:31;;;;;;;29.17;18.37;;;;;;;0.37;84.98;101592.06;5007209;28;20444;-78
2021/12/12 08:30:57;;;;;;;29.53;17.43;;;;;;;0.41;84.99;101592.28;4992627;28;20128;-77
2021/12/12 08:33:23;;;;;;;31.30;19.70;;;;;;;0.43;85.00;101585.47;5006760;28;20034;-77
2021/12/12 08:35:49;;;;;;;25.87;16.87;;;;;;;0.46;84.78;101589.06;5009295;28;20092;-77
2021/12/12 08:38:16;;;;;;;29.70;18.50;;;;;;;0.55;85.30;101589.50;5006250;28;20433;-77
2021/12/12 08:40:47;;;;;;;29.67;18.77;;;;;;;0.59;85.44;101588.88;4988580;28;20073;-78
2021/12/12 08:43:14;;;;;;;25.33;16.37;;;;;;;0.66;84.71;101585.78;5006028;28;20096;-77
2021/12/12 08:45:44;;;;;;;28.50;17.93;;;;;;;0.70;84.58;101577.31;5005598;28;20089;-77
2021/12/12 08:48:10;;;;;;;30.77;19.00;;;;;;;0.65;84.64;101573.59;5006140;28;20026;-77
2021/12/12 08:50:38;;;;;;;27.07;17.50;;;;;;;0.66;84.64;101575.38;5009492;28;20522;-77
2021/12/12 08:53:05;;;;;;;29.73;18.67;;;;;;;0.64;84.52;101579.59;5006420;28;20033;-76
2021/12/12 08:55:36;;;;;;;29.37;17.67;;;;;;;0.74;84.82;101579.25;5009348;28;20045;-78
2021/12/12 08:58:14;;;;;;;26.20;16.00;;;;;;;0.82;84.81;101593.53;4988884;28;20075;-77
2021/12/12 09:00:52;;;;;;;24.73;15.43;;;;;;;0.96;84.29;101588.13;5012302;28;20034;-78
2021/12/12 09:03:24;;;;;;;25.83;14.85;;;;;;;1.07;84.06;101581.72;4987660;28;20394;-78
2021/12/12 09:05:50;;;;;;;25.08;15.90;;;;;;;1.19;83.47;101582.34;4992420;28;20034;-77
2021/12/12 09:08:26;;;;;;;23.65;14.90;;;;;;;1.37;83.45;101582.34;4989120;28;20038;-77
2021/12/12 09:11:25;;;;;;;25.55;16.77;;;;;;;1.56;82.55;101584.09;5005505;28;20042;-77
2021/12/12 09:13:59;;;;;;;26.08;15.32;;;;;;;1.77;82.38;101572.91;4994061;28;20665;-78
2021/12/12 09:16:41;;;;;;;27.80;17.10;;;;;;;1.92;82.01;101574.50;5009096;28;20043;-77
2021/12/12 09:19:11;;;;;;;23.87;16.27;;;;;;;2.03;81.90;101564.56;5006690;28;20038;-77
2021/12/12 09:21:52;;;;;;;25.10;16.38;;;;;;;2.23;81.42;101572.38;4991345;28;20038;-77
2021/12/12 09:24:43;;;;;;;21.75;14.02;;;;;;;2.40;81.19;101560.97;4988449;28;20460;-77
2021/12/12 09:27:13;;;;;;;23.50;15.02;;;;;;;2.54;80.29;101556.34;5006651;28;20452;-77
2021/12/12 09:29:44;;;;;;;25.02;16.42;;;;;;;2.75;80.60;101553.78;5006065;28;20230;-78
2021/12/12 09:32:17;;;;;;;21.83;14.52;;;;;;;2.86;79.67;101552.53;5005555;28;20038;-78
2021/12/12 09:35:01;;;;;;;22.45;14.88;;;;;;;2.95;79.18;101545.06;4990811;28;20056;-77
2021/12/12 09:37:36;;;;;;;22.73;14.95;;;;;;;3.02;79.51;101541.00;5008930;28;20044;-77
2021/12/12 09:40:39;;;;;;;24.00;13.77;;;;;;;3.20;79.47;101540.84;5005016;28;20038;-77
2021/12/12 09:43:20;;;;;;;24.03;14.90;;;;;;;3.27;78.67;101530.72;5005533;28;20062;-77
2021/12/12 09:45:54;;;;;;;20.83;13.55;;;;;;;3.32;78.73;101533.50;4988662;28;20488;-76
2021/12/12 09:51:36;;;;;;;21.65;14.40;;;;;;;3.51;78.38;101512.50;4992594;28;20412;-78
2021/12/12 09:54:05;;;;;;;22.60;13.88;;;;;;;3.55;78.12;101512.63;5007343;28;20041;-78
2021/12/12 09:56:42;;;;;;;22.40;13.95;;;;;;;3.64;77.79;101507.75;5006882;28;20097;-77
2021/12/12 09:59:39;;;;;;;20.65;13.55;;;;;;;3.64;77.21;101503.44;5005842;28;20037;-77
2021/12/12 10:02:22;;;;;;;21.15;13.80;;;;;;;3.56;77.68;101496.13;4989482;28;20046;-77
2021/12/12 10:05:03;;;;;;;20.27;13.15;;;;;;;3.60;78.28;101484.97;4987437;28;20049;-77
2021/12/12 10:07:51;;;;;;;19.20;12.40;;;;;;;3.77;77.61;101473.41;4989244;28;20045;-78
2021/12/12 10:10:35;;;;;;;19.38;13.68;;;;;;;3.89;77.43;101483.44;4973913;28;20393;-77
2021/12/12 10:13:19;;;;;;;18.48;13.10;;;;;;;3.90;77.14;101483.50;4990531;28;20037;-77
2021/12/12 10:15:54;;;;;;;19.55;12.90;;;;;;;3.93;77.08;101483.59;5005342;28;20090;-77
2021/12/12 10:18:24;;;;;;;18.42;13.15;;;;;;;3.81;77.34;101480.53;4994129;28;20515;-77
2021/12/12 10:21:08;;;;;;;21.35;14.32;;;;;;;3.69;78.00;101480.09;4988619;28;20136;-77
2021/12/12 10:24:06;;;;;;;25.95;15.48;;;;;;;3.71;78.07;101476.69;4991739;28;20065;-77
2021/12/12 10:26:37;;;;;;;19.75;12.75;;;;;;;3.83;77.63;101473.66;5005232;28;20115;-77
2021/12/12 10:29:09;;;;;;;19.88;13.90;;;;;;;3.91;77.34;101481.78;5007886;28;20049;-77
2021/12/12 10:31:35;;;;;;;;;;;;;;;3.94;77.42;101477.53;5006669;28;20046;-77
2021/12/12 10:34:09;;;;;;;21.73;13.38;;;;;;;4.10;77.62;101481.59;4990234;28;19913;-76
2021/12/12 10:36:50;;;;;;;21.13;13.80;;;;;;;4.23;76.86;101480.28;4985753;28;20521;-77
2021/12/12 10:39:30;;;;;;;20.88;13.38;;;;;;;4.31;76.54;101476.22;5006859;28;20041;-78
2021/12/12 10:42:01;;;;;;;20.90;14.07;;;;;;;4.31;77.06;101481.44;4988676;28;20034;-77
2021/12/12 10:44:50;;;;;;;19.33;12.38;;;;;;;4.40;76.39;101493.94;5006778;28;20037;-77
2021/12/12 10:47:52;;;;;;;17.35;11.73;;;;;;;4.59;76.07;101490.25;4996781;28;20038;-77
2021/12/12 10:50:26;;;;;;;19.25;13.32;;;;;;;4.58;75.68;101493.66;5006380;28;20034;-77
2021/12/12 10:52:51;;;;;;;20.20;13.20;;;;;;;4.57;75.55;101487.56;4973614;28;20041;-77
2021/12/12 10:55:20;;;;;;;17.40;11.55;;;;;;;4.63;75.23;101491.22;5005533;28;20042;-77
2021/12/12 10:58:02;;;;;;;21.70;12.23;;;;;;;4.57;75.37;101495.41;5007275;28;20470;-78
2021/12/12 11:00:31;;;;;;;17.33;11.98;;;;;;;4.59;75.62;101500.69;5008245;28;20029;-78
2021/12/12 11:02:59;;;;;;;17.27;11.60;;;;;;;4.55;75.07;101497.06;5005254;28;20038;-77
2021/12/12 11:05:33;;;;;;;18.17;12.48;;;;;;;4.60;75.36;101497.22;5008029;28;20049;-77
2021/12/12 11:08:15;;;;;;;18.38;12.57;;;;;;;4.68;75.50;101495.75;5004800;28;20112;-77
2021/12/12 11:10:47;;;;;;;20.08;13.13;;;;;;;4.77;75.41;101495.19;5006188;28;20030;-78
2021/12/12 11:13:30;;;;;;;17.48;11.93;;;;;;;4.80;74.58;101496.16;5007533;28;20046;-78
2021/12/12 11:16:09;;;;;;;21.35;12.45;;;;;;;4.76;74.79;101490.78;5004690;28;20103;-77
2021/12/12 11:19:00;;;;;;;17.85;12.52;;;;;;;4.79;74.43;101496.09;4989271;28;20048;-77
2021/12/12 11:21:36;;;;;;;20.40;13.00;;;;;;;4.79;74.54;101489.19;5005559;28;20436;-77
2021/12/12 11:24:11;;;;;;;21.58;13.25;;;;;;;4.78;74.77;101482.16;5007631;28;20034;-77
2021/12/12 11:26:42;;;;;;;20.25;12.15;;;;;;;4.88;75.47;101475.50;4997996;28;20038;-77
2021/12/12 11:29:12;;;;;;;17.33;12.15;;;;;;;4.95;74.40;101468.72;4987733;28;20092;-78
2021/12/12 11:31:46;;;;;;;17.95;11.45;;;;;;;4.97;74.44;101467.03;5007949;28;20040;-78
2021/12/12 11:34:12;;;;;;;16.35;10.32;;;;;;;5.01;74.26;101458.47;5006747;28;20408;-76
2021/12/12 11:36:58;;;;;;;17.30;10.63;;;;;;;5.01;73.21;101461.06;5011117;28;20045;-77
2021/12/12 11:39:32;;;;;;;16.40;11.63;;;;;;;5.06;73.90;101462.13;5010168;28;20088;-78
2021/12/12 11:42:08;;;;;;;16.95;11.95;;;;;;;5.11;73.63;101457.91;4975189;28;20081;-77
2021/12/12 11:44:38;;;;;;;16.88;11.80;;;;;;;5.14;73.63;101451.88;5007789;28;20034;-77
2021/12/12 11:47:25;;;;;;;18.15;11.43;;;;;;;5.28;72.84;101445.31;5010957;28;20544;-77